createdAt,value
2022-08-07T00:00:26.094Z,102037.97
2022-08-07T00:02:55.983Z,102042.94
2022-08-07T00:05:25.642Z,102037.16
2022-08-07T00:08:00.318Z,102041.81
2022-08-07T00:10:30.624Z,102040.75
2022-08-07T00:13:03.230Z,102043.31
2022-08-07T00:15:46.727Z,102039.22
2022-08-07T00:18:24.855Z,102048.97
2022-08-07T00:20:56.744Z,102047.22
2022-08-07T00:23:28.430Z,102050.97
2022-08-07T00:26:00.245Z,102043.13
2022-08-07T00:28:33.733Z,102044.16
2022-08-07T00:31:12.435Z,102048.47
2022-08-07T00:33:41.822Z,102037.09
2022-08-07T00:36:11.253Z,102045.91
2022-08-07T00:38:40.253Z,102034.66
2022-08-07T00:41:09.935Z,102039.00
2022-08-07T00:44:01.309Z,102036.59
2022-08-07T00:46:33.172Z,102035.22
2022-08-07T00:49:03.151Z,102037.03
2022-08-07T00:51:57.561Z,102032.59
2022-08-07T00:54:20.558Z,102042.41
2022-08-07T00:56:51.290Z,102039.88
2022-08-07T00:59:32.667Z,102044.97
2022-08-07T01:02:06.375Z,102044.25
2022-08-07T01:04:43.255Z,102042.28
2022-08-07T01:07:12.935Z,102036.34
2022-08-07T01:10:04.730Z,102041.88
2022-08-07T01:12:31.063Z,102039.38
2022-08-07T01:15:03.862Z,102037.53
2022-08-07T01:17:33.068Z,102042.84
2022-08-07T01:20:06.522Z,102042.91
2022-08-07T01:22:37.813Z,102039.31
2022-08-07T01:25:53.945Z,102031.53
2022-08-07T01:28:03.888Z,102031.16
2022-08-07T01:30:32.407Z,102031.09
2022-08-07T01:33:00.576Z,102030.69
2022-08-07T01:35:37.001Z,102037.25
2022-08-07T01:38:24.863Z,102032.44
2022-08-07T01:40:59.339Z,102034.69
2022-08-07T01:43:37.988Z,102029.88
2022-08-07T01:46:08.187Z,102032.56
2022-08-07T01:48:46.580Z,102029.94
2022-08-07T01:52:01.986Z,102037.81
2022-08-07T01:54:21.994Z,102036.34
2022-08-07T01:57:04.420Z,102041.88
2022-08-07T01:59:37.893Z,102042.31
2022-08-07T02:02:32.752Z,102044.66
2022-08-07T02:05:07.863Z,102040.59
2022-08-07T02:07:51.616Z,102039.38
2022-08-07T02:10:35.072Z,102044.69
2022-08-07T02:13:07.773Z,102048.03
2022-08-07T02:15:48.336Z,102035.22
2022-08-07T02:18:22.596Z,102035.09
2022-08-07T02:20:57.479Z,102032.63
2022-08-07T02:23:26.840Z,102031.44
2022-08-07T02:26:26.624Z,102030.56
2022-08-07T02:28:45.075Z,102034.75
2022-08-07T02:31:28.171Z,102036.03
2022-08-07T02:34:03.038Z,102029.31
2022-08-07T02:36:35.225Z,102038.56
2022-08-07T02:39:17.046Z,102035.25
2022-08-07T02:42:00.677Z,102042.56
2022-08-07T02:44:34.774Z,102040.69
2022-08-07T02:47:06.911Z,102037.53
2022-08-07T02:49:56.356Z,102033.25
2022-08-07T02:52:32.252Z,102032.03
2022-08-07T02:55:04.489Z,102037.50
2022-08-07T02:57:46.734Z,102029.41
2022-08-07T03:00:18.334Z,102034.09
2022-08-07T03:02:54.651Z,102024.09
2022-08-07T03:05:24.964Z,102025.97
2022-08-07T03:08:07.971Z,102028.91
2022-08-07T03:10:46.192Z,102032.38
2022-08-07T03:13:19.272Z,102027.44
2022-08-07T03:15:56.290Z,102033.75
2022-08-07T03:18:34.834Z,102034.06
2022-08-07T03:21:08.524Z,102030.59
2022-08-07T03:24:21.039Z,102043.56
2022-08-07T03:26:32.032Z,102029.56
2022-08-07T03:29:05.159Z,102038.41
2022-08-07T03:31:42.430Z,102032.41
2022-08-07T03:34:18.893Z,102034.50
2022-08-07T03:36:53.685Z,102028.28
2022-08-07T03:39:59.463Z,102032.59
2022-08-07T03:42:12.730Z,102032.22
2022-08-07T03:44:43.279Z,102035.22
2022-08-07T03:47:25.565Z,102039.22
2022-08-07T03:49:57.008Z,102053.88
2022-08-07T03:52:29.244Z,102043.78
2022-08-07T03:55:06.712Z,102045.44
2022-08-07T03:58:32.442Z,102047.56
2022-08-07T04:00:33.802Z,102046.53
2022-08-07T04:03:04.774Z,102052.41
2022-08-07T04:05:40.925Z,102051.63
2022-08-07T04:08:16.039Z,102053.81
2022-08-07T04:10:54.090Z,102047.34
2022-08-07T04:14:33.269Z,102044.94
2022-08-07T04:16:31.149Z,102047.13
2022-08-07T04:19:15.191Z,102041.28
2022-08-07T04:22:04.909Z,102039.66
2022-08-07T04:24:41.183Z,102048.22
2022-08-07T04:27:15.130Z,102054.72
2022-08-07T04:30:01.588Z,102054.63
2022-08-07T04:32:44.844Z,102056.13
2022-08-07T04:35:16.905Z,102057.00
2022-08-07T04:38:03.092Z,102049.69
2022-08-07T04:40:34.768Z,102055.66
2022-08-07T04:43:03.593Z,102056.38
2022-08-07T04:45:54.946Z,102061.88
2022-08-07T04:49:02.707Z,102062.16
2022-08-07T04:51:50.027Z,102068.84
2022-08-07T04:54:30.181Z,102065.81
2022-08-07T04:58:16.822Z,102066.75
2022-08-07T05:00:11.889Z,102069.16
2022-08-07T05:02:50.087Z,102068.38
2022-08-07T05:05:53.447Z,102066.94
2022-08-07T05:08:17.929Z,102068.16
2022-08-07T05:11:11.904Z,102067.09
2022-08-07T05:14:52.900Z,102056.72
2022-08-07T05:16:44.159Z,102064.47
2022-08-07T05:19:16.249Z,102072.97
2022-08-07T05:22:00.270Z,102067.22
2022-08-07T05:24:39.516Z,102074.03
2022-08-07T05:28:02.995Z,102081.25
2022-08-07T05:30:04.517Z,102069.16
2022-08-07T05:32:33.741Z,102081.66
2022-08-07T05:35:03.703Z,102070.66
2022-08-07T05:37:40.754Z,102069.00
2022-08-07T05:40:17.670Z,102079.06
2022-08-07T05:42:56.053Z,102079.28
2022-08-07T05:45:47.027Z,102080.03
2022-08-07T05:48:15.258Z,102079.66
2022-08-07T05:50:46.305Z,102078.78
2022-08-07T05:54:09.608Z,102078.25
2022-08-07T05:56:07.443Z,102082.31
2022-08-07T05:58:41.941Z,102079.91
2022-08-07T06:01:23.180Z,102084.38
2022-08-07T06:03:58.662Z,102087.06
2022-08-07T06:06:36.714Z,102091.81
2022-08-07T06:09:10.282Z,102092.09
2022-08-07T06:11:43.107Z,102089.13
2022-08-07T06:14:21.412Z,102086.69
2022-08-07T06:16:59.282Z,102091.28
2022-08-07T06:19:52.107Z,102089.09
2022-08-07T06:22:24.141Z,102087.19
2022-08-07T06:25:06.087Z,102089.03
2022-08-07T06:28:00.137Z,102091.25
2022-08-07T06:30:35.640Z,102089.69
2022-08-07T06:33:16.597Z,102087.69
2022-08-07T06:35:49.240Z,102081.63
2022-08-07T06:38:38.164Z,102090.34
2022-08-07T06:41:12.950Z,102090.63
2022-08-07T06:43:46.123Z,102095.75
2022-08-07T06:46:20.396Z,102095.94
2022-08-07T06:49:00.105Z,102099.25
2022-08-07T06:51:35.179Z,102092.00
2022-08-07T06:55:32.413Z,102097.03
2022-08-07T06:57:09.726Z,102097.94
2022-08-07T07:00:13.791Z,102093.34
2022-08-07T07:02:53.431Z,102092.41
2022-08-07T07:06:02.681Z,102083.66
2022-08-07T07:08:18.482Z,102090.44
2022-08-07T07:10:56.757Z,102081.53
2022-08-07T07:13:55.789Z,102083.16
2022-08-07T07:16:21.914Z,102093.94
2022-08-07T07:18:51.622Z,102087.59
2022-08-07T07:21:22.013Z,102086.91
2022-08-07T07:24:09.034Z,102087.28
2022-08-07T07:26:41.756Z,102092.31
2022-08-07T07:29:55.949Z,102088.06
2022-08-07T07:32:14.322Z,102083.66
2022-08-07T07:34:45.570Z,102078.28
2022-08-07T07:37:45.397Z,102072.94
2022-08-07T07:40:10.438Z,102075.31
2022-08-07T07:42:47.137Z,102079.50
2022-08-07T07:45:24.531Z,102083.09
2022-08-07T07:48:11.973Z,102073.47
2022-08-07T07:51:00.455Z,102067.00
2022-08-07T07:53:34.848Z,102069.56
2022-08-07T07:56:08.310Z,102077.69
2022-08-07T07:58:40.948Z,102065.63
2022-08-07T08:02:03.251Z,102057.53
2022-08-07T08:04:09.456Z,102052.22
2022-08-07T08:06:40.724Z,102050.47
2022-08-07T08:09:23.068Z,102051.47
2022-08-07T08:12:02.138Z,102048.72
2022-08-07T08:14:31.711Z,102046.56
2022-08-07T08:17:56.563Z,102048.78
2022-08-07T08:20:19.385Z,102042.84
2022-08-07T08:22:58.711Z,102046.78
2022-08-07T08:25:49.384Z,102051.66
2022-08-07T08:28:24.025Z,102042.34
2022-08-07T08:31:14.854Z,102038.78
2022-08-07T08:33:50.096Z,102034.59
2022-08-07T08:36:30.061Z,102039.06
2022-08-07T08:39:02.173Z,102039.56
2022-08-07T08:41:56.959Z,102037.06
2022-08-07T08:44:31.485Z,102040.38
2022-08-07T08:47:07.696Z,102034.06
2022-08-07T08:49:46.863Z,102038.69
2022-08-07T08:52:36.179Z,102031.81
2022-08-07T08:55:21.029Z,102023.53
2022-08-07T08:58:13.063Z,102029.03
2022-08-07T09:00:48.400Z,102025.19
2022-08-07T09:03:47.419Z,102035.66
2022-08-07T09:06:21.241Z,102023.00
2022-08-07T09:08:58.033Z,102026.91
2022-08-07T09:11:43.539Z,102026.91
2022-08-07T09:14:29.704Z,102026.66
2022-08-07T09:17:02.092Z,102024.22
2022-08-07T09:19:52.922Z,102020.47
2022-08-07T09:24:30.376Z,102010.22
2022-08-07T09:25:41.303Z,102022.59
2022-08-07T09:30:02.066Z,102017.81
2022-08-07T09:31:09.396Z,102015.28
2022-08-07T09:33:56.803Z,102012.44
2022-08-07T09:36:35.388Z,102006.81
2022-08-07T09:39:53.988Z,102004.38
2022-08-07T09:42:07.720Z,102001.41
2022-08-07T09:45:40.010Z,102004.88
2022-08-07T09:47:58.263Z,102002.53
2022-08-07T09:50:37.539Z,101996.22
2022-08-07T09:53:12.586Z,101997.56
2022-08-07T09:56:03.206Z,101991.69
2022-08-07T09:58:52.374Z,101988.88
2022-08-07T10:01:50.997Z,101989.44
2022-08-07T10:04:33.343Z,101987.38
2022-08-07T10:07:24.358Z,101983.19
2022-08-07T10:10:06.996Z,101975.94
2022-08-07T10:13:05.900Z,101978.97
2022-08-07T10:15:51.348Z,101972.75
2022-08-07T10:18:35.417Z,101975.66
2022-08-07T10:21:50.524Z,101970.88
2022-08-07T10:24:31.136Z,101960.09
2022-08-07T10:27:11.415Z,101959.50
2022-08-07T10:29:56.456Z,101950.22
2022-08-07T10:32:52.773Z,101942.38
2022-08-07T10:35:55.307Z,101939.06
2022-08-07T10:38:46.392Z,101943.00
2022-08-07T10:41:51.652Z,101946.41
2022-08-07T10:44:28.499Z,101931.56
2022-08-07T10:47:26.830Z,101934.97
2022-08-07T10:50:15.146Z,101933.50
2022-08-07T10:52:51.869Z,101922.03
2022-08-07T10:55:36.805Z,101921.19
2022-08-07T10:58:40.685Z,101922.16
2022-08-07T11:01:23.705Z,101921.63
2022-08-07T11:04:11.172Z,101912.06
2022-08-07T11:06:56.518Z,101902.75
2022-08-07T11:10:09.237Z,101909.84
2022-08-07T11:12:31.655Z,101905.75
2022-08-07T11:15:14.796Z,101906.66
2022-08-07T11:17:50.501Z,101896.22
2022-08-07T11:20:27.255Z,101896.66
2022-08-07T11:23:01.376Z,101894.94
2022-08-07T11:25:42.241Z,101886.56
2022-08-07T11:28:16.727Z,101890.34
2022-08-07T11:30:53.329Z,101878.22
2022-08-07T11:33:48.684Z,101882.53
2022-08-07T11:36:35.640Z,101874.00
2022-08-07T11:39:10.668Z,101875.97
2022-08-07T11:42:02.114Z,101877.84
2022-08-07T11:44:39.454Z,101879.44
2022-08-07T11:47:39.172Z,101870.44
2022-08-07T11:50:32.604Z,101868.94
2022-08-07T11:53:15.684Z,101869.19
2022-08-07T11:56:26.884Z,101867.69
2022-08-07T11:59:22.208Z,101860.91
2022-08-07T12:02:04.099Z,101863.09
2022-08-07T12:05:00.850Z,101862.50
2022-08-07T12:07:38.759Z,101856.09
2022-08-07T12:10:12.586Z,101849.66
2022-08-07T12:12:44.807Z,101853.53
2022-08-07T12:15:35.413Z,101846.75
2022-08-07T12:18:11.433Z,101850.31
2022-08-07T12:20:46.281Z,101846.38
2022-08-07T12:24:06.000Z,101841.13
2022-08-07T12:26:28.625Z,101837.50
2022-08-07T12:29:05.096Z,101829.47
2022-08-07T12:31:52.737Z,101825.31
2022-08-07T12:34:27.880Z,101825.59
2022-08-07T12:36:57.525Z,101827.09
2022-08-07T12:39:43.933Z,101823.75
2022-08-07T12:42:27.367Z,101815.50
2022-08-07T12:44:57.717Z,101815.69
2022-08-07T12:47:31.853Z,101813.47
2022-08-07T12:50:39.261Z,101815.03
2022-08-07T12:52:58.677Z,101810.97
2022-08-07T12:55:40.801Z,101805.94
2022-08-07T12:58:13.967Z,101801.59
2022-08-07T13:01:05.638Z,101802.84
2022-08-07T13:04:02.773Z,101795.75
2022-08-07T13:08:11.613Z,101791.81
2022-08-07T13:10:29.122Z,101795.16
2022-08-07T13:13:48.734Z,101794.25
2022-08-07T13:16:12.336Z,101785.19
2022-08-07T13:18:49.339Z,101777.00
2022-08-07T13:21:37.656Z,101783.31
2022-08-07T13:24:13.447Z,101776.72
2022-08-07T13:26:46.049Z,101775.25
2022-08-07T13:29:18.131Z,101769.34
2022-08-07T13:31:57.236Z,101776.25
2022-08-07T13:34:37.744Z,101768.69
2022-08-07T13:37:20.563Z,101768.56
2022-08-07T13:40:35.413Z,101770.16
2022-08-07T13:42:50.127Z,101763.34
2022-08-07T13:46:06.802Z,101762.34
2022-08-07T13:48:10.633Z,101752.28
2022-08-07T13:51:00.480Z,101749.94
2022-08-07T13:54:00.160Z,101749.06
2022-08-07T13:56:36.293Z,101750.34
2022-08-07T13:59:13.034Z,101749.09
2022-08-07T14:01:51.600Z,101745.38
2022-08-07T14:04:29.793Z,101743.03
2022-08-07T14:07:09.740Z,101735.34
2022-08-07T14:10:02.375Z,101730.88
2022-08-07T14:12:41.389Z,101735.63
2022-08-07T14:15:22.300Z,101735.16
2022-08-07T14:18:24.041Z,101723.91
2022-08-07T14:20:48.855Z,101733.34
2022-08-07T14:23:59.431Z,101725.22
2022-08-07T14:26:28.502Z,101719.34
2022-08-07T14:29:02.929Z,101715.97
2022-08-07T14:31:42.298Z,101716.50
2022-08-07T14:34:19.934Z,101720.16
2022-08-07T14:36:55.932Z,101709.75
2022-08-07T14:42:20.482Z,101712.44
2022-08-07T14:44:53.722Z,101707.59
2022-08-07T14:47:23.210Z,101709.78
2022-08-07T14:49:59.255Z,101710.81
2022-08-07T14:55:17.681Z,101706.44
2022-08-07T14:57:58.812Z,101706.91
2022-08-07T15:00:31.046Z,101701.81
2022-08-07T15:02:59.934Z,101691.41
2022-08-07T15:05:30.624Z,101696.34
2022-08-07T15:08:01.442Z,101703.09
2022-08-07T15:10:30.463Z,101694.34
2022-08-07T15:13:01.513Z,101698.34
2022-08-07T15:15:38.514Z,101692.25
2022-08-07T15:18:14.511Z,101687.97
2022-08-07T15:21:44.312Z,101700.84
2022-08-07T15:25:16.168Z,101694.53
2022-08-07T15:26:49.027Z,101684.72
2022-08-07T15:32:11.782Z,101685.41
2022-08-07T15:34:50.681Z,101684.63
2022-08-07T15:38:04.861Z,101676.63
2022-08-07T15:43:53.823Z,101675.25
2022-08-07T15:46:31.902Z,101674.41
2022-08-07T15:54:34.282Z,101679.31
2022-08-07T15:57:03.415Z,101669.19
2022-08-07T15:59:39.919Z,101676.66
2022-08-07T16:02:15.272Z,101669.31
2022-08-07T16:04:44.187Z,101666.56
2022-08-07T16:08:31.177Z,101669.34
2022-08-07T16:10:14.294Z,101654.84
2022-08-07T16:13:01.125Z,101659.47
2022-08-07T16:15:55.344Z,101657.03
2022-08-07T16:18:49.465Z,101662.56
2022-08-07T16:22:01.156Z,101661.03
2022-08-07T16:24:35.090Z,101658.81
2022-08-07T16:27:18.039Z,101648.59
2022-08-07T16:30:28.990Z,101651.34
2022-08-07T16:33:00.206Z,101648.78
2022-08-07T16:35:58.387Z,101649.78
2022-08-07T16:39:00.466Z,101655.16
2022-08-07T16:41:41.504Z,101644.81
2022-08-07T16:44:46.367Z,101643.53
2022-08-07T16:47:51.640Z,101638.03
2022-08-07T16:50:38.878Z,101643.91
2022-08-07T16:53:48.176Z,101646.78
2022-08-07T16:56:21.579Z,101654.88
2022-08-07T16:59:14.680Z,101646.44
2022-08-07T17:01:53.848Z,101643.84
2022-08-07T17:04:34.510Z,101645.44
2022-08-07T17:07:10.713Z,101645.00
2022-08-07T17:10:07.504Z,101650.81
2022-08-07T17:12:46.401Z,101648.84
2022-08-07T17:15:20.037Z,101655.25
2022-08-07T17:18:00.022Z,101647.63
2022-08-07T17:20:33.107Z,101657.53
2022-08-07T17:23:08.630Z,101653.53
2022-08-07T17:25:54.749Z,101650.06
2022-08-07T17:28:31.329Z,101646.00
2022-08-07T17:31:16.061Z,101657.50
2022-08-07T17:34:15.355Z,101651.97
2022-08-07T17:36:57.868Z,101654.53
2022-08-07T17:39:53.005Z,101652.59
2022-08-07T17:42:33.062Z,101655.41
2022-08-07T17:45:05.936Z,101653.22
2022-08-07T17:47:54.410Z,101650.28
2022-08-07T17:50:30.825Z,101656.94
2022-08-07T17:53:02.044Z,101658.63
2022-08-07T17:55:54.905Z,101649.09
2022-08-07T17:58:34.174Z,101652.97
2022-08-07T18:01:21.187Z,101645.91
2022-08-07T18:04:06.803Z,101648.19
2022-08-07T18:06:43.114Z,101651.44
2022-08-07T18:09:17.828Z,101655.09
2022-08-07T18:12:19.618Z,101652.22
2022-08-07T18:15:01.807Z,101648.25
2022-08-07T18:18:45.242Z,101644.31
2022-08-07T18:21:08.956Z,101652.78
2022-08-07T18:23:43.400Z,101651.34
2022-08-07T18:26:16.366Z,101654.38
2022-08-07T18:29:00.362Z,101648.50
2022-08-07T18:31:40.597Z,101648.66
2022-08-07T18:34:39.210Z,101656.00
2022-08-07T18:38:58.479Z,101658.47
2022-08-07T18:40:42.517Z,101661.78
2022-08-07T18:43:15.063Z,101662.00
2022-08-07T18:46:24.702Z,101669.13
2022-08-07T18:50:32.923Z,101669.88
2022-08-07T18:52:33.895Z,101675.31
2022-08-07T18:54:32.056Z,101668.53
2022-08-07T18:57:31.016Z,101677.75
2022-08-07T19:00:33.521Z,101681.34
2022-08-07T19:03:00.692Z,101681.72
2022-08-07T19:06:03.651Z,101681.69
2022-08-07T19:08:26.966Z,101693.94
2022-08-07T19:11:00.736Z,101690.03
2022-08-07T19:13:38.527Z,101692.13
2022-08-07T19:17:01.494Z,101692.34
2022-08-07T19:19:14.744Z,101690.63
2022-08-07T19:21:56.898Z,101694.78
2022-08-07T19:24:43.576Z,101701.47
2022-08-07T19:28:28.569Z,101693.66
2022-08-07T19:31:05.189Z,101697.28
2022-08-07T19:32:59.717Z,101706.63
2022-08-07T19:35:33.537Z,101695.59
2022-08-07T19:38:15.826Z,101701.81
2022-08-07T19:40:50.270Z,101704.19
2022-08-07T19:43:21.694Z,101704.16
2022-08-07T19:46:15.760Z,101708.47
2022-08-07T19:48:53.520Z,101711.50
2022-08-07T19:51:50.450Z,101706.31
2022-08-07T19:54:35.260Z,101719.78
2022-08-07T19:58:02.615Z,101716.22
2022-08-07T19:59:50.762Z,101720.06
2022-08-07T20:02:28.758Z,101713.09
2022-08-07T20:04:57.227Z,101717.47
2022-08-07T20:07:47.201Z,101714.97
2022-08-07T20:10:35.816Z,101718.16
2022-08-07T20:13:15.738Z,101722.00
2022-08-07T20:15:51.331Z,101724.25
2022-08-07T20:18:32.958Z,101716.06
2022-08-07T20:21:21.989Z,101722.88
2022-08-07T20:23:54.928Z,101729.38
2022-08-07T20:26:32.283Z,101736.91
2022-08-07T20:29:10.710Z,101729.91
2022-08-07T20:31:52.320Z,101733.44
2022-08-07T20:34:48.852Z,101731.84
2022-08-07T20:37:10.382Z,101729.53
2022-08-07T20:40:02.487Z,101729.59
2022-08-07T20:42:33.362Z,101727.31
2022-08-07T20:45:02.078Z,101736.31
2022-08-07T20:47:56.223Z,101730.03
2022-08-07T20:50:24.380Z,101735.75
2022-08-07T20:52:52.879Z,101736.22
2022-08-07T20:55:23.600Z,101735.81
2022-08-07T20:58:02.421Z,101740.97
2022-08-07T21:00:42.608Z,101739.81
2022-08-07T21:03:14.151Z,101738.28
2022-08-07T21:05:54.542Z,101748.03
2022-08-07T21:08:36.511Z,101740.63
2022-08-07T21:11:16.977Z,101743.09
2022-08-07T21:14:20.210Z,101744.06
2022-08-07T21:16:46.773Z,101748.34
2022-08-07T21:19:32.310Z,101750.97
2022-08-07T21:22:19.154Z,101752.06
2022-08-07T21:25:04.737Z,101747.25
2022-08-07T21:27:55.696Z,101749.56
2022-08-07T21:30:36.390Z,101750.47
2022-08-07T21:33:13.716Z,101752.38
2022-08-07T21:36:04.978Z,101745.63
2022-08-07T21:38:46.127Z,101749.16
2022-08-07T21:41:21.010Z,101748.06
2022-08-07T21:43:57.093Z,101753.72
2022-08-07T21:46:31.800Z,101737.94
2022-08-07T21:49:15.088Z,101748.00
2022-08-07T21:51:54.869Z,101744.47
2022-08-07T21:54:29.436Z,101741.81
2022-08-07T21:57:31.011Z,101750.81
2022-08-07T22:00:08.726Z,101752.38
2022-08-07T22:02:42.538Z,101749.56
2022-08-07T22:05:22.057Z,101748.94
2022-08-07T22:08:03.061Z,101747.25
2022-08-07T22:10:35.590Z,101750.03
2022-08-07T22:13:05.728Z,101746.00
2022-08-07T22:16:42.549Z,101750.13
2022-08-07T22:19:07.476Z,101754.03
2022-08-07T22:22:05.198Z,101752.31
2022-08-07T22:24:34.637Z,101744.59
2022-08-07T22:27:10.240Z,101748.50
2022-08-07T22:29:48.379Z,101756.09
2022-08-07T22:32:21.979Z,101748.25
2022-08-07T22:34:54.547Z,101750.38
2022-08-07T22:38:02.879Z,101752.41
2022-08-07T22:40:24.555Z,101750.38
2022-08-07T22:42:59.225Z,101746.81
2022-08-07T22:46:21.716Z,101752.16
2022-08-07T22:48:55.398Z,101746.63
2022-08-07T22:51:44.493Z,101753.38
2022-08-07T22:54:37.513Z,101758.13
2022-08-07T22:57:17.137Z,101748.66
2022-08-07T22:59:50.991Z,101750.16
2022-08-07T23:02:41.634Z,101757.78
2022-08-07T23:06:09.462Z,101749.63
2022-08-07T23:08:46.208Z,101749.09
2022-08-07T23:11:41.133Z,101747.28
2022-08-07T23:14:28.710Z,101754.31
2022-08-07T23:17:37.187Z,101760.78
2022-08-07T23:20:51.121Z,101751.81
2022-08-07T23:24:05.291Z,101760.09
2022-08-07T23:26:26.216Z,101756.41
2022-08-07T23:29:43.151Z,101766.50
2022-08-07T23:34:22.385Z,101757.91
2022-08-07T23:35:16.719Z,101759.66
2022-08-07T23:38:19.358Z,101762.31
2022-08-07T23:41:33.381Z,101761.88
2022-08-07T23:44:16.483Z,101764.94
2022-08-07T23:46:58.584Z,101757.59
2022-08-07T23:49:53.590Z,101753.84
2022-08-07T23:53:05.949Z,101755.97
2022-08-07T23:55:52.962Z,101757.94
2022-08-07T23:58:18.701Z,101756.41
